Fort Barnwell, North Carolina
Current Conditions -  °F | °C
As of 9:56 AM on Saturday 22 Nov 2014 (Local Time) from KISO Reporting Station
Clear Clear  
Wind Chill: 45°   Ceiling: Unl
Heat Index: 45°   Visibility: 10mi
Dew Point: 25°   Wind: 3mph
Humidity: 46%   Direction: 130°SE
Pressure: 30.59"   Gusts: NA
Location:  35.2736°N, 77.3791°W
Report Text: KISO 221456Z AUTO 13003KT 10SM CLR 07/M04 A3059 RMK AO2
Loading
Personal Weather Stations






























Interactive Weather Map New forecast layout! Learn more

10-Day Weather Forecast

Advertisements
Track Severe Weather on mobile